Strawberry, Arkansas
Current Conditions -  °F | °C
As of 11:15 AM on Sunday 23 Nov 2014 (Local Time) from KARG Reporting Station
Overcast Overcast  
Wind Chill: 57°   Ceiling: 700
Heat Index: 57°   Visibility: 8mi
Dew Point: 54°   Wind: 14mph
Humidity: 88%   Direction: 140°SE
Pressure: 29.52"   Gusts: NA
Location:  35.97°N, 91.32°W
Report Text: KARG 231715Z AUTO 14012KT 8SM BKN007 BKN015 OVC020 14/12 A2952 RMK AO1 P0002
Loading
Personal Weather Stations






























Interactive Weather Map New forecast layout! Learn more

10-Day Weather Forecast

Advertisements
Track Severe Weather on mobile